DW8297 Weather Reports


time (UTC)temp
C
wind
direction
speed
KPH
gust
KPH
rain 1hr
cm
rain 24hr
cm
rain mn
cm
humidity
%
barometer
mb
20260505065350 -39 27 0.0 0.0 0.00 0.00 0.00 88 1014.7
20260505063844 -39 27 0.0 0.0 0.00 0.00 0.00 88 1014.7
20260505062336 -39 27 0.0 0.0 0.00 0.00 0.00 88 1014.7
20260505060827 -39 27 0.0 0.0 0.00 0.00 0.00 88 1014.7
20260505055321 -39 27 0.0 0.0 0.00 0.00 0.00 88 1014.8
20260505053814 -39 27 0.0 0.0 0.00 0.00 0.00 88 1014.8
20260505052311 -39 27 0.0 0.0 0.00 0.00 0.00 88 1014.8
20260505050757 -39 27 0.0 3.2 0.00 0.00 0.00 88 1014.8
20260505040740 -39 11 0.0 3.2 0.00 0.00 0.00 88 1014.5
20260505035953 -39 303 0.0 6.4 0.00 0.00 0.00 88 1014.5
20260505033719 -39 16 0.0 4.8 0.00 0.00 0.00 88 1014.7
20260505032218 -39 35 0.0 4.8 0.00 0.00 0.00 88 1014.7
20260505030712 -39 7 0.0 0.0 0.00 0.00 0.00 88 1014.6
20260505025207 -39 359 0.0 3.2 0.00 0.00 0.00 88 1014.6
20260505024431 -39 359 0.0 0.0 0.00 0.00 0.00 88 1014.8
20260505022154 -39 359 0.0 3.2 0.00 0.00 0.00 88 1014.8
20260505021415 -39 20 0.0 0.0 0.00 0.00 0.00 88 1014.8
20260505015139 -39 20 0.0 6.4 0.00 0.00 0.00 88 1014.6
20260505013633 -39 206 0.0 0.0 0.00 0.00 0.00 88 1014.6
20260505013628 -39 206 0.0 3.2 0.00 0.00 0.00 88 1014.5
20260505010618 -39 206 0.0 0.0 0.00 0.00 0.00 88 1014.3
20260505005107 -39 206 0.0 1.6 0.00 0.00 0.00 88 1014.1
20260505003605 -39 206 0.0 0.0 0.00 0.00 0.00 88 1013.9
20260505002057 -39 206 0.0 0.0 0.00 0.00 0.00 88 1013.8
20260505000556 -39 206 0.0 0.0 0.00 0.00 0.00 88 1013.6
20260504235046 -39 206 0.0 3.2 0.00 0.00 0.00 88 1013.6
20260504233530 -39 207 0.0 3.2 0.00 0.00 0.00 88 1013.6
20260504232031 -39 108 0.0 6.4 0.00 0.00 0.00 88 1013.6
20260504230511 -39 339 1.6 16.1 0.00 0.00 0.00 88 1013.7
20260504230507 -39 31 0.0 6.4 0.00 0.00 0.00 88 1013.6
20260504223500 -39 90 1.6 8.0 0.00 0.00 0.00 88 1013.7
20260504221951 -39 8 3.2 11.3 0.00 0.00 0.00 88 1013.7
20260504220442 -39 287 3.2 9.7 0.00 0.00 0.00 88 1013.9
20260504214937 -39 291 3.2 11.3 0.00 0.00 0.00 88 1013.9
20260504213438 -39 226 3.2 9.7 0.00 0.00 0.00 88 1014.0
20260504211937 -39 26 4.8 17.7 0.00 0.00 0.00 88 1013.9
20260504210439 -39 308 3.2 12.9 0.00 0.00 0.00 88 1013.8
20260504204942 -39 35 3.2 14.5 0.00 0.00 0.00 88 1014.3
20260504204938 -39 10 3.2 12.9 0.00 0.00 0.00 88 1013.9
20260504201939 -39 237 3.2 11.3 0.00 0.00 0.00 88 1014.4
20260504200438 -39 58 3.2 14.5 0.00 0.00 0.00 88 1014.5
20260504194937 -39 19 3.2 12.9 0.00 0.00 0.00 88 1014.7
20260504193439 -39 3 3.2 14.5 0.00 0.00 0.00 88 1014.8
20260504191935 -39 319 3.2 14.5 0.00 0.00 0.00 88 1015.1
20260504191204 -39 17 3.2 11.3 0.00 0.00 0.00 88 1015.1
20260504184932 -39 73 4.8 14.5 0.00 0.00 0.00 88 1015.4
20260504183432 -39 37 3.2 14.5 0.00 0.00 0.00 88 1015.5
20260504181932 -39 269 3.2 12.9 0.00 0.00 0.00 88 1015.8
20260504180433 -39 354 3.2 16.1 0.00 0.00 0.00 88 1016.1
20260504175703 -39 252 3.2 9.7 0.00 0.00 0.00 88 1016.1
20260504174204 -39 21 3.2 12.9 0.00 0.00 0.00 88 1016.4
20260504171933 -39 17 4.8 11.3 0.00 0.00 0.00 88 1016.5
20260504170432 -39 348 4.8 12.9 0.00 0.00 0.00 88 1016.8
20260504160418 -39 52 4.8 12.9 0.00 0.00 0.00 88 1017.6
20260504151147 -39 138 1.6 6.4 0.00 0.00 0.00 88 1017.9
20260504140404 -39 277 3.2 8.0 0.00 0.00 0.00 88 1018.1
20260504100328 -39 7 0.0 0.0 0.00 0.00 0.00 88 1019.2
20260504081743 -39 7 0.0 0.0 0.00 0.00 0.00 88 1019.1
20260504080231 -39 7 0.0 0.0 0.00 0.00 0.00 88 1019.0
20260504070150 -39 7 0.0 0.0 0.00 0.00 0.00 88 1019.1